Golden, OK (74737)

5:40 AM CDT on June 30, 2015 (GMT -0500)
Idabel | | Change Station
CLOSE
Current Station
Airport
Location: Idabel,
Elevation: 472 ft
Nearby Weather Stations
Active Advisory: Flood Warning

Elev 472 ft 33.91 °N, 94.85 °W | Updated 25 minutes ago

Partly Cloudy
Partly Cloudy
72 °F
Feels Like 72 °F
N
5
Wind Variable Wind from WSW

Today
High -- | Low -- °F
--% Chance of Precip.
Yesterday
High -- | Low -- °F
Precip. -- in
6:11 AM 8:34 PM
Waxing Gibbous, 97% visible
Pressure 29.96 in
Visibility 10.0 miles
Clouds Clear
Dew Point 70 °F
Humidity 94%
Rainfall 0.00 in
Snow Depth Not available.
UV 0 out of 12
Pollen 4.20 out of 12
Air Quality Not available.
Flu Activity Sporadic
METAR K4O4 301015Z AUTO 25004KT 10SM CLR 22/21 A2996 RMK AO2

More Conditions Fewer Conditions

Pressure 29.96 in
Visibility 10.0 miles
Clouds Clear
Dew Point 70 °F
Humidity 94%
Rainfall 0.00 in
Snow Depth Not available.
UV 0 out of 12
Pollen 4.20 out of 12
Air Quality Not available.
Flu Activity Sporadic
METAR K4O4 301015Z AUTO 25004KT 10SM CLR 22/21 A2996 RMK AO2

More Conditions Fewer Conditions

10-Day Weather Forecast

×

Almanac

Astronomy

Jun. 30, 2015 Rise Set
Actual Time
Civil Twilight
Nautical Twilight
Astronomical Twilight
Moon
Length of Visible Light
Length of Day
Tomorrow will be .
, % of the Moon is Illuminated

Today's Extremes

State Highs State Lows

Community

WunderPhotos

Upload Photos

1,833,977 photos uploaded!

WunderBlogs® & News

Nearby

Air Quality

  Air Quality AQ Index Pollutant
Not available.

Snow Depth

Station Depth Elevation

Earthquake Activity

City Distance Mag. Time & Date
Minimum magnitude displayed is 2.5.

Coastal Water Temperatures

Place Temperature

Stations

Nearby Weather Stations

Station Location Temp. Windchill Dew Point Humidity Wind Precip. Elev Updated Type
                   
Flood Warning
Statement as of 9:02 AM CDT on June 29, 2015

The Flood Warning continues for
the Red River near DeKalb.
* Until further notice... or until the warning is cancelled.
* At 8:00 am Monday the stage was 28.9 feet.
* Moderate flooding is occurring and moderate flooding is forecast.
* Flood stage is 24.0 feet.
* Forecast... the river will continue to fall to a stage of 28.1 feet
by tomorrow morning.
* Impact... at 30.0 feet... several thousands of acres of farm land and
pasture flood. Livestock must be evacuated to higher ground. Much
of the flood plain is inundated, and preparations for a major flood
should be made.


Lat... Lon 3397 9516 3367 9448 3359 9448 3367 9475 3391 9516